Time;durP1;ratioP1;P1;durP2;ratioP2;P2;SDS_P1;SDS_P2;PMS_P1;PMS_P2;Temp;Humidity;BMP_temperature;BMP_pressure;BME280_temperature;BME280_humidity;BME280_pressure;Samples;Min_cycle;Max_cycle;Signal;HPM_P1;HPM_P2
2023/01/23 00:01:53;;;;;;;124.80;20.10;;;;;;;4.35;68.38;100809.44;7712484;32;39316;-79
2023/01/23 00:06:15;;;;;;;160.45;19.30;;;;;;;4.36;68.46;100813.78;7695865;32;39981;-79
2023/01/23 00:10:31;;;;;;;220.65;22.30;;;;;;;4.62;67.60;100804.03;7685705;32;38075;-79
2023/01/23 00:14:47;;;;;;;77.28;16.48;;;;;;;4.62;67.69;100826.50;7685650;32;37844;-79
2023/01/23 00:19:04;;;;;;;92.15;17.05;;;;;;;4.73;67.15;100818.81;7685700;32;38977;-79
2023/01/23 00:23:20;;;;;;;161.70;18.45;;;;;;;4.54;67.41;100815.06;7685545;32;40216;-79
2023/01/23 00:27:36;;;;;;;56.92;15.57;;;;;;;4.48;67.74;100822.94;7685446;32;39119;-79
2023/01/23 00:31:52;;;;;;;142.65;18.90;;;;;;;4.43;67.66;100825.44;7685364;32;37130;-79
2023/01/23 00:36:09;;;;;;;112.03;18.85;;;;;;;4.53;67.39;100808.81;7702927;32;40069;-80
2023/01/23 00:40:25;;;;;;;179.63;19.20;;;;;;;4.39;67.42;100807.97;7711972;32;40502;-80
2023/01/23 00:44:42;;;;;;;211.02;23.38;;;;;;;4.31;67.76;100811.72;7711857;32;38058;-79
2023/01/23 00:48:58;;;;;;;159.00;20.33;;;;;;;4.32;67.43;100801.72;7711914;32;37330;-79
2023/01/23 00:53:14;;;;;;;116.62;17.77;;;;;;;4.45;66.82;100790.94;7710879;32;40246;-79
2023/01/23 00:57:30;;;;;;;195.35;21.27;;;;;;;4.51;66.70;100802.78;7710792;32;39908;-80
2023/01/23 01:01:46;;;;;;;196.27;20.33;;;;;;;4.31;67.19;100802.75;7711697;32;38677;-80
2023/01/23 01:06:03;;;;;;;94.43;17.45;;;;;;;4.13;67.95;100789.87;7711228;32;37369;-80
2023/01/23 01:10:20;;;;;;;244.85;22.15;;;;;;;4.30;67.35;100776.81;7711866;32;39849;-80
2023/01/23 01:14:36;;;;;;;219.48;19.60;;;;;;;4.03;68.09;100790.25;7700327;32;39908;-79
2023/01/23 01:18:52;;;;;;;132.98;18.65;;;;;;;4.07;68.05;100783.44;7709138;32;38658;-81
2023/01/23 01:23:09;;;;;;;278.45;20.95;;;;;;;4.23;67.45;100773.28;7711624;32;38115;-80
2023/01/23 01:27:27;;;;;;;81.53;16.25;;;;;;;4.21;67.29;100784.28;7711532;32;39030;-80
2023/01/23 01:31:43;;;;;;;229.50;19.48;;;;;;;4.30;67.06;100787.62;7711458;32;40006;-81
2023/01/23 01:36:00;;;;;;;353.80;21.35;;;;;;;3.27;70.23;100810.06;7711240;32;38612;-80
2023/01/23 01:40:22;;;;;;;197.75;17.87;;;;;;;4.01;68.36;100800.41;7711339;32;37323;-80
2023/01/23 01:44:58;;;;;;;41.95;13.80;;;;;;;4.13;67.59;100784.47;7700200;32;39305;-80
2023/01/23 01:49:22;;;;;;;141.90;17.02;;;;;;;4.16;67.94;100753.53;7685315;32;40904;-78
2023/01/23 01:53:39;;;;;;;155.05;18.52;;;;;;;4.27;67.57;100779.91;7684428;32;38098;-80
2023/01/23 01:57:55;;;;;;;107.82;15.75;;;;;;;4.11;67.17;100790.06;7684280;32;36939;-79
2023/01/23 02:02:33;;;;;;;259.70;20.23;;;;;;;4.10;67.58;100774.91;7670837;32;39564;-79
2023/01/23 02:06:51;;;;;;;69.53;15.93;;;;;;;4.21;67.31;100767.22;7672648;32;39764;-79
2023/01/23 02:11:07;;;;;;;180.00;15.73;;;;;;;4.16;67.17;100764.31;7684273;32;38174;-80
2023/01/23 02:15:23;;;;;;;223.68;17.50;;;;;;;4.28;66.71;100762.69;7700467;32;36970;-80
2023/01/23 02:19:51;;;;;;;189.57;18.08;;;;;;;4.26;66.54;100760.19;7696940;32;39027;-79
2023/01/23 02:24:10;;;;;;;105.65;12.93;;;;;;;4.18;66.93;100749.59;7692469;32;39643;-79
2023/01/23 02:28:45;;;;;;;167.75;16.90;;;;;;;3.96;67.32;100759.72;7710462;32;38866;-80
2023/01/23 02:33:19;;;;;;;85.87;14.82;;;;;;;3.97;67.53;100757.84;7710408;32;36982;-81
2023/01/23 02:37:37;;;;;;;120.15;13.27;;;;;;;4.01;67.64;100742.94;7710358;32;40152;-79
2023/01/23 02:41:54;;;;;;;159.93;13.23;;;;;;;4.27;66.25;100744.81;7710101;32;40872;-81
2023/01/23 02:46:11;;;;;;;78.95;12.10;;;;;;;4.28;65.83;100751.91;7672279;32;38026;-79
2023/01/23 02:50:28;;;;;;;30.58;11.15;;;;;;;4.08;66.26;100741.87;7683390;32;37959;-79
2023/01/23 02:54:45;;;;;;;43.80;11.40;;;;;;;3.94;66.45;100734.81;7683291;32;40052;-78
2023/01/23 03:03:36;;;;;;;91.07;12.98;;;;;;;3.87;66.22;100721.31;7682903;32;37858;-79
2023/01/23 03:07:52;;;;;;;99.15;12.95;;;;;;;3.78;66.30;100719.00;7683118;32;37987;-79
2023/01/23 03:12:09;;;;;;;70.47;12.82;;;;;;;3.65;66.76;100726.03;7683102;32;39424;-80
2023/01/23 03:16:25;;;;;;;84.37;12.45;;;;;;;3.65;66.76;100712.56;7707666;32;40153;-80
2023/01/23 03:20:41;;;;;;;91.30;12.52;;;;;;;3.70;66.80;100707.38;7685453;32;37589;-80
2023/01/23 03:24:58;;;;;;;113.00;13.50;;;;;;;3.72;67.17;100708.00;7682596;32;36882;-79
2023/01/23 03:33:57;;;;;;;25.27;9.90;;;;;;;3.73;66.92;100689.97;7686021;32;40010;-80
2023/01/23 03:38:16;;;;;;;17.25;9.25;;;;;;;3.91;65.89;100681.28;7686115;32;37808;-80
2023/01/23 03:42:34;;;;;;;14.63;8.30;;;;;;;3.86;65.93;100676.47;7690382;32;37184;-80
2023/01/23 03:46:51;;;;;;;15.18;8.93;;;;;;;3.89;65.61;100669.84;7712749;32;39930;-80
2023/01/23 03:51:07;;;;;;;59.22;10.25;;;;;;;3.78;65.76;100675.84;7712655;32;40083;-80
2023/01/23 03:55:23;;;;;;;73.12;11.60;;;;;;;3.80;65.50;100679.19;7712403;32;37722;-80
2023/01/23 03:59:40;;;;;;;16.73;8.82;;;;;;;3.71;65.61;100676.69;7716006;32;37903;-73
2023/01/23 04:03:56;;;;;;;12.57;7.70;;;;;;;3.71;65.56;100682.09;7724572;32;39677;-72
2023/01/23 04:08:12;;;;;;;15.63;7.57;;;;;;;4.04;65.55;100684.00;7723289;32;40337;-79
2023/01/23 04:12:28;;;;;;;12.95;7.95;;;;;;;4.04;65.70;100686.69;7685028;32;38607;-79
2023/01/23 04:16:44;;;;;;;16.02;7.82;;;;;;;4.28;65.43;100681.72;7687017;32;37083;-80
2023/01/23 04:21:01;;;;;;;15.05;7.07;;;;;;;4.29;65.81;100672.56;7685685;32;40243;-79
2023/01/23 04:25:17;;;;;;;13.88;7.32;;;;;;;4.43;65.83;100668.81;7685549;32;41246;-79
2023/01/23 04:29:33;;;;;;;13.10;7.28;;;;;;;4.54;65.80;100670.06;7685546;32;37592;-79
2023/01/23 04:33:49;;;;;;;12.80;6.87;;;;;;;4.73;65.50;100679.16;7685464;32;37768;-81
2023/01/23 04:38:06;;;;;;;12.10;6.70;;;;;;;4.79;65.40;100677.47;7685468;32;39655;-81
2023/01/23 04:42:22;;;;;;;8.98;5.57;;;;;;;4.88;65.08;100671.63;7700491;32;40829;-80
2023/01/23 04:46:38;;;;;;;10.30;5.78;;;;;;;4.84;65.92;100670.38;7711950;32;37791;-79
2023/01/23 04:50:55;;;;;;;10.98;6.07;;;;;;;4.84;66.22;100670.38;7711926;32;37896;-81
2023/01/23 04:55:11;;;;;;;11.48;6.80;;;;;;;5.16;64.96;100667.78;7711898;32;39338;-80
2023/01/23 04:59:27;;;;;;;10.77;6.37;;;;;;;4.94;66.05;100669.12;7711869;32;40010;-80
2023/01/23 05:03:43;;;;;;;9.70;5.90;;;;;;;5.20;65.18;100677.13;7695488;32;38469;-80
2023/01/23 05:07:59;;;;;;;15.68;7.53;;;;;;;5.04;65.60;100677.59;7685113;32;36758;-80
2023/01/23 05:12:15;;;;;;;10.13;6.50;;;;;;;5.15;64.94;100682.34;7685251;32;39017;-80
2023/01/23 05:16:32;;;;;;;9.85;6.25;;;;;;;5.18;64.23;100672.97;7685000;32;39996;-80
2023/01/23 05:20:48;;;;;;;12.68;6.72;;;;;;;5.40;63.95;100678.91;7685077;32;38680;-79
2023/01/23 05:25:05;;;;;;;12.30;6.22;;;;;;;5.16;64.83;100678.59;7685038;32;37903;-80
2023/01/23 05:29:21;;;;;;;11.65;5.95;;;;;;;5.26;64.75;100683.56;7683853;32;40084;-80
2023/01/23 05:33:39;;;;;;;13.18;6.62;;;;;;;5.48;64.17;100686.75;7709694;32;40808;-80
2023/01/23 05:37:55;;;;;;;12.02;6.60;;;;;;;5.47;64.16;100695.94;7711379;32;37978;-80
2023/01/23 05:42:11;;;;;;;12.73;6.47;;;;;;;5.46;64.28;100707.78;7699670;32;37085;-80
2023/01/23 05:46:27;;;;;;;8.90;5.82;;;;;;;5.47;64.38;100712.16;7711343;32;37835;-80
2023/01/23 05:50:44;;;;;;;11.82;5.78;;;;;;;5.53;64.39;100713.16;7709999;32;39984;-81
2023/01/23 05:55:00;;;;;;;9.27;5.35;;;;;;;5.58;64.13;100714.16;7711152;32;38717;-80
2023/01/23 05:59:16;;;;;;;7.90;4.87;;;;;;;5.86;63.29;100712.16;7711343;32;37756;-79
2023/01/23 06:03:33;;;;;;;9.02;5.22;;;;;;;5.86;63.18;100710.25;7684408;32;39759;-81
2023/01/23 06:07:49;;;;;;;9.82;5.60;;;;;;;5.81;63.66;100723.59;7684375;32;39908;-80
2023/01/23 06:12:06;;;;;;;8.98;4.87;;;;;;;5.72;63.78;100730.34;7696688;32;37564;-79
2023/01/23 06:16:22;;;;;;;10.27;5.55;;;;;;;5.71;63.48;100734.06;7710720;32;37074;-79
2023/01/23 06:20:38;;;;;;;9.45;5.32;;;;;;;5.60;63.94;100739.13;7710853;32;39268;-79
2023/01/23 06:24:54;;;;;;;7.93;4.68;;;;;;;5.93;62.98;100738.13;7710524;32;39896;-81
2023/01/23 06:29:11;;;;;;;8.68;5.07;;;;;;;5.95;62.73;100738.75;7684387;32;37904;-80
2023/01/23 06:33:27;;;;;;;11.30;5.65;;;;;;;5.97;62.84;100750.19;7683878;32;36882;-80
2023/01/23 06:37:43;;;;;;;9.73;5.95;;;;;;;6.03;62.78;100758.50;7708889;32;39446;-79
2023/01/23 06:42:00;;;;;;;7.70;5.10;;;;;;;6.15;62.47;100762.16;7683854;32;39757;-79
2023/01/23 06:46:16;;;;;;;12.20;5.43;;;;;;;6.11;62.58;100769.06;7683626;32;37904;-80
2023/01/23 06:50:32;;;;;;;8.50;5.15;;;;;;;6.11;62.54;100763.66;7683674;32;37128;-81
2023/01/23 06:54:49;;;;;;;11.77;5.07;;;;;;;6.19;62.22;100774.22;7683340;32;40123;-81
2023/01/23 06:59:05;;;;;;;10.52;5.32;;;;;;;6.19;62.32;100775.06;7669713;32;40192;-81
2023/01/23 07:03:23;;;;;;;10.40;5.72;;;;;;;6.41;61.65;100769.25;7684235;32;37171;-81
2023/01/23 07:07:40;;;;;;;10.07;5.07;;;;;;;6.16;62.28;100780.09;7713234;32;37239;-80
2023/01/23 07:11:56;;;;;;;8.93;5.03;;;;;;;6.45;61.51;100780.47;7699516;32;40145;-80
2023/01/23 07:16:12;;;;;;;9.77;5.12;;;;;;;6.41;61.57;100777.38;7686843;32;39886;-82
2023/01/23 07:20:29;;;;;;;8.93;5.28;;;;;;;6.31;62.06;100786.03;7713025;32;37993;-81
2023/01/23 07:24:46;;;;;;;8.30;5.28;;;;;;;6.43;61.88;100785.31;7713018;32;37137;-80
2023/01/23 07:29:02;;;;;;;7.85;4.75;;;;;;;6.53;61.64;100796.47;7699300;32;40215;-83
2023/01/23 07:33:21;;;;;;;9.23;5.32;;;;;;;6.66;61.69;100780.13;7696409;32;40524;-79
2023/01/23 07:37:37;;;;;;;10.35;4.90;;;;;;;6.85;61.42;100774.75;7686060;32;37839;-79
2023/01/23 07:41:55;;;;;;;10.80;5.80;;;;;;;6.95;61.02;100777.75;7686087;32;36058;-80
2023/01/23 07:46:12;;;;;;;10.05;5.00;;;;;;;6.87;61.25;100800.56;7686344;32;40037;-81
2023/01/23 07:50:31;;;;;;;12.05;5.57;;;;;;;6.91;61.33;100806.37;7672509;32;39775;-81
2023/01/23 07:54:47;;;;;;;8.50;5.15;;;;;;;6.92;61.02;100806.16;7686014;32;37990;-82
2023/01/23 07:59:03;;;;;;;9.77;5.50;;;;;;;6.96;62.50;100810.06;7686058;32;36809;-82
2023/01/23 08:03:19;;;;;;;14.95;6.10;;;;;;;7.28;61.27;100814.56;7703664;32;39833;-80
2023/01/23 08:07:36;;;;;;;8.88;5.15;;;;;;;7.74;63.26;100812.38;7701931;32;40006;-80
2023/01/23 08:11:52;;;;;;;10.90;6.07;;;;;;;7.93;61.03;100807.75;7712416;32;38770;-80
2023/01/23 08:16:08;;;;;;;10.15;5.18;;;;;;;8.12;61.16;100803.09;7711724;32;37077;-84
2023/01/23 08:20:28;;;;;;;9.85;5.82;;;;;;;8.40;60.32;100797.03;7712407;32;39338;-81
2023/01/23 08:24:45;;;;;;;9.48;5.03;;;;;;;8.52;60.11;100792.50;7712226;32;39945;-82
2023/01/23 08:29:01;;;;;;;9.32;5.20;;;;;;;8.74;60.32;100789.19;7710884;32;37954;-82
2023/01/23 08:33:18;;;;;;;10.60;5.20;;;;;;;9.17;60.56;100790.75;7691620;32;38203;-81
2023/01/23 08:37:35;;;;;;;10.13;4.95;;;;;;;9.30;59.99;100798.66;7692559;32;40052;-81
2023/01/23 08:41:51;;;;;;;6.95;4.55;;;;;;;9.19;58.99;100808.50;7686109;32;40599;-80
2023/01/23 08:46:08;;;;;;;6.72;4.15;;;;;;;9.56;55.37;100808.19;7692831;32;38098;-81
2023/01/23 08:50:25;;;;;;;9.55;4.28;;;;;;;9.56;55.15;100810.09;7679207;32;37021;-82
2023/01/23 08:54:43;;;;;;;9.60;4.55;;;;;;;9.67;55.10;100820.13;7711048;32;38231;-82
2023/01/23 08:58:59;;;;;;;10.23;4.70;;;;;;;9.93;54.92;100804.28;7710244;32;39890;-81
2023/01/23 09:03:15;;;;;;;8.57;4.28;;;;;;;10.18;54.80;100803.13;7697487;32;38650;-82
2023/01/23 09:07:35;;;;;;;9.93;4.70;;;;;;;10.28;55.50;100811.50;7684837;32;37592;-81
2023/01/23 09:11:52;;;;;;;8.95;4.40;;;;;;;10.48;54.95;100803.69;7671189;32;39325;-82
2023/01/23 09:16:09;;;;;;;8.23;4.37;;;;;;;10.50;54.90;100807.03;7683982;32;40009;-84
2023/01/23 09:20:25;;;;;;;10.38;4.87;;;;;;;10.48;55.52;100809.13;7684498;32;38168;-81
2023/01/23 09:24:41;;;;;;;8.35;4.62;;;;;;;10.68;53.60;100807.84;7694445;32;36876;-80
2023/01/23 09:28:57;;;;;;;8.40;4.75;;;;;;;11.18;53.52;100798.78;7702028;32;39081;-82
2023/01/23 09:33:15;;;;;;;8.82;4.95;;;;;;;11.33;53.18;100792.72;7684678;32;40701;-79
2023/01/23 09:37:58;;;;;;;8.88;4.80;;;;;;;11.51;53.77;100788.84;7684038;32;37630;-81
2023/01/23 09:42:30;;;;;;;10.75;4.50;;;;;;;11.34;52.54;100801.75;7684478;32;37054;-82
2023/01/23 09:46:46;;;;;;;;;;;;;;;11.36;52.52;100797.66;7671935;32;39451;-81
2023/01/23 09:51:35;;;;;;;9.05;4.68;;;;;;;11.40;52.29;100797.97;7708511;32;40251;-83
2023/01/23 09:56:04;;;;;;;9.00;4.43;;;;;;;11.69;51.93;100790.44;7678867;32;36943;-83
2023/01/23 10:00:28;;;;;;;7.78;3.92;;;;;;;11.82;51.74;100800.16;7668864;32;37129;-83
2023/01/23 10:04:49;;;;;;;8.25;4.22;;;;;;;11.75;50.79;100789.44;7670656;32;40173;-82
2023/01/23 10:09:27;;;;;;;8.57;4.32;;;;;;;12.19;51.92;100778.47;7684051;32;40512;-83
2023/01/23 10:14:02;;;;;;;8.75;4.78;;;;;;;12.15;51.12;100792.91;7683172;32;38557;-83
2023/01/23 10:18:30;;;;;;;9.38;5.20;;;;;;;11.87;50.94;100802.94;7702694;32;37097;-83
2023/01/23 10:23:04;;;;;;;10.10;4.28;;;;;;;11.94;50.36;100781.75;7673952;32;39482;-82
2023/01/23 10:27:43;;;;;;;8.23;4.32;;;;;;;12.06;51.58;100778.88;7683187;32;40842;-83
2023/01/23 10:32:01;;;;;;;6.72;4.37;;;;;;;12.05;50.32;100779.13;7707740;32;37884;-84
2023/01/23 10:36:24;;;;;;;8.07;4.60;;;;;;;12.37;50.38;100780.00;7697909;32;37760;-79
2023/01/23 10:45:19;;;;;;;5.82;3.85;;;;;;;12.66;50.11;100771.50;7704494;32;41323;-76
2023/01/23 10:49:42;;;;;;;15.23;4.32;;;;;;;12.68;50.38;100763.03;7681158;32;38084;-80
2023/01/23 10:54:10;;;;;;;6.50;3.40;;;;;;;12.41;50.53;100758.41;7672681;32;36878;-82
2023/01/23 10:58:48;;;;;;;7.40;3.47;;;;;;;12.63;50.16;100772.00;7685597;32;39379;-82
2023/01/23 11:03:21;;;;;;;9.35;4.05;;;;;;;13.07;50.22;100771.78;7686910;32;39903;-82
2023/01/23 11:07:39;;;;;;;;;;;;;;;13.99;48.43;100756.84;7692582;32;37415;-85
2023/01/23 11:12:03;;;;;;;6.93;3.50;;;;;;;13.90;47.60;100757.34;7682703;32;36967;-85
2023/01/23 11:16:22;;;;;;;6.65;3.40;;;;;;;14.43;47.04;100748.09;7682205;32;39907;-85
2023/01/23 11:20:51;;;;;;;5.35;3.12;;;;;;;14.07;46.18;100739.81;7681966;32;40528;-85
2023/01/23 11:25:48;;;;;;;5.85;3.30;;;;;;;14.84;45.67;100737.12;7657478;32;37835;-85
2023/01/23 11:30:34;;;;;;;4.93;2.92;;;;;;;15.01;45.02;100737.63;7653660;32;37055;-84
2023/01/23 11:34:59;;;;;;;6.45;3.20;;;;;;;15.23;44.08;100721.91;7681588;32;39481;-82
2023/01/23 11:39:48;;;;;;;7.10;3.33;;;;;;;15.42;44.79;100720.19;7669768;32;39726;-82
2023/01/23 11:44:12;;;;;;;6.05;2.87;;;;;;;15.44;45.06;100708.94;7669056;32;37815;-83
2023/01/23 11:48:36;;;;;;;6.30;3.22;;;;;;;16.15;42.51;100705.75;7678608;32;37101;-81
2023/01/23 11:53:18;;;;;;;8.32;3.35;;;;;;;16.03;41.87;100698.97;7645026;32;39316;-82
2023/01/23 11:57:57;;;;;;;6.40;3.15;;;;;;;16.29;42.98;100705.09;7647894;32;40705;-82
2023/01/23 12:02:18;;;;;;;5.87;3.08;;;;;;;16.62;41.48;100692.41;7659579;32;38716;-84
2023/01/23 12:07:07;;;;;;;6.03;3.40;;;;;;;16.19;41.52;100702.44;7631910;32;37098;-82
2023/01/23 12:11:26;;;;;;;7.03;3.08;;;;;;;15.79;41.08;100701.63;7633471;32;39885;-83
2023/01/23 12:15:57;;;;;;;7.53;3.33;;;;;;;16.32;41.22;100699.03;7633233;32;39741;-82
2023/01/23 12:20:22;;;;;;;5.28;2.90;;;;;;;15.75;41.96;100691.19;7670003;32;38734;-82
2023/01/23 12:24:52;;;;;;;7.53;3.45;;;;;;;16.18;41.41;100689.78;7685682;32;37073;-81
2023/01/23 12:29:46;;;;;;;5.97;2.95;;;;;;;16.35;42.00;100681.94;7685340;32;40073;-82
2023/01/23 12:34:43;;;;;;;6.93;2.90;;;;;;;16.39;41.25;100677.50;7667546;32;40964;-84
2023/01/23 12:39:38;;;;;;;7.28;3.20;;;;;;;16.75;41.41;100679.91;7685401;32;38709;-83
2023/01/23 12:44:11;;;;;;;5.37;2.90;;;;;;;17.04;41.38;100679.03;7661162;32;37777;-86
2023/01/23 12:48:33;;;;;;;5.45;3.08;;;;;;;17.49;39.52;100676.84;7657820;32;39371;-83
2023/01/23 12:52:54;;;;;;;5.95;3.25;;;;;;;17.07;38.58;100686.72;7635685;32;39776;-82
2023/01/23 12:57:11;;;;;;;4.37;3.00;;;;;;;16.50;40.90;100681.78;7663600;32;37995;-83
2023/01/23 13:02:05;;;;;;;5.62;3.28;;;;;;;17.15;40.04;100690.78;7658292;32;36713;-83
2023/01/23 13:06:39;;;;;;;;;;;;;;;16.84;40.50;100688.37;7682142;32;39448;-82
2023/01/23 13:11:39;;;;;;;7.53;3.03;;;;;;;17.39;39.57;100690.75;7685312;32;40992;-82
2023/01/23 13:16:29;;;;;;;5.22;2.70;;;;;;;17.19;38.70;100691.81;7674136;32;37699;-82
2023/01/23 13:25:37;;;;;;;4.07;2.45;;;;;;;17.84;37.41;100699.50;7684995;32;39357;-83
2023/01/23 13:29:54;;;;;;;4.28;2.37;;;;;;;17.73;38.08;100692.47;7671488;32;39959;-82
2023/01/23 13:34:16;;;;;;;4.60;2.60;;;;;;;17.79;36.69;100688.53;7684881;32;38667;-82
2023/01/23 13:38:38;;;;;;;3.63;2.70;;;;;;;18.08;35.35;100676.56;7684709;32;37156;-84
2023/01/23 13:42:54;;;;;;;4.65;2.75;;;;;;;18.16;36.04;100684.13;7671891;32;40007;-83
2023/01/23 13:57:05;;;;;;;4.37;2.65;;;;;;;17.62;36.82;100678.84;7474010;33;38457;-83
2023/01/23 14:06:40;;;;;;;5.07;2.78;;;;;;;18.08;35.95;100687.59;7374500;33;40143;-82
2023/01/23 14:11:14;;;;;;;5.00;2.95;;;;;;;19.72;32.82;100695.50;7322131;34;38264;-84
2023/01/23 14:16:11;;;;;;;4.03;2.75;;;;;;;20.69;30.85;100697.09;7353756;33;37271;-84
2023/01/23 14:20:42;;;;;;;5.12;2.92;;;;;;;21.67;28.46;100700.69;7322964;33;39605;-83
2023/01/23 14:24:58;;;;;;;5.60;2.90;;;;;;;19.69;32.28;100707.19;7369212;33;40774;-83
2023/01/23 14:29:21;;;;;;;4.28;2.70;;;;;;;18.60;33.31;100710.44;7417447;33;38679;-82
2023/01/23 14:33:42;;;;;;;5.62;3.05;;;;;;;17.78;34.63;100712.56;7493308;33;38305;-84
2023/01/23 14:38:01;;;;;;;6.78;2.90;;;;;;;17.51;36.20;100728.94;7490297;33;39172;-85
2023/01/23 14:42:29;;;;;;;7.07;2.97;;;;;;;16.95;36.88;100731.19;7511543;33;40520;-85
2023/01/23 14:46:54;;;;;;;7.32;3.15;;;;;;;16.52;37.69;100731.03;7523826;33;38595;-82
2023/01/23 14:51:19;;;;;;;8.48;2.97;;;;;;;16.11;39.04;100728.63;7629100;32;37054;-82
2023/01/23 14:55:39;;;;;;;7.72;3.58;;;;;;;15.78;39.91;100736.53;7665405;32;38707;-84
2023/01/23 14:59:58;;;;;;;7.20;3.60;;;;;;;15.29;40.30;100748.25;7643392;32;39951;-82
2023/01/23 15:04:22;;;;;;;7.93;3.45;;;;;;;14.93;41.79;100746.41;7655938;32;37948;-82
2023/01/23 15:08:39;;;;;;;8.77;3.80;;;;;;;14.44;42.81;100755.22;7653975;32;37223;-83
2023/01/23 15:13:01;;;;;;;8.20;3.42;;;;;;;14.15;43.10;100760.41;7653631;32;40171;-83
2023/01/23 15:17:19;;;;;;;8.20;4.10;;;;;;;13.95;43.74;100758.44;7653799;32;40854;-84
2023/01/23 15:21:38;;;;;;;5.30;3.20;;;;;;;13.80;43.55;100762.00;7660012;32;39615;-82
2023/01/23 15:26:13;;;;;;;6.70;3.40;;;;;;;13.56;44.38;100773.41;7671037;32;37921;-83
2023/01/23 15:30:39;;;;;;;6.97;3.72;;;;;;;13.32;45.31;100768.38;7686110;32;39885;-82
2023/01/23 15:34:57;;;;;;;6.72;4.05;;;;;;;13.03;46.17;100776.09;7685707;32;39895;-84
2023/01/23 15:39:23;;;;;;;10.68;4.12;;;;;;;12.82;47.24;100766.13;7671718;32;37109;-83
2023/01/23 15:43:39;;;;;;;5.80;3.83;;;;;;;12.55;47.87;100764.28;7686044;32;37238;-83
2023/01/23 15:47:55;;;;;;;7.82;4.00;;;;;;;12.75;47.05;100769.09;7664915;32;39327;-83
2023/01/23 15:52:19;;;;;;;9.48;4.32;;;;;;;12.52;47.44;100775.72;7659519;32;40002;-82
2023/01/23 15:56:36;;;;;;;7.60;4.20;;;;;;;12.31;48.39;100786.47;7659559;32;38754;-83
2023/01/23 16:00:52;;;;;;;7.78;4.03;;;;;;;12.15;48.58;100787.44;7680326;32;37018;-84
2023/01/23 16:05:09;;;;;;;8.88;4.20;;;;;;;12.11;48.96;100791.78;7661758;32;40159;-83
2023/01/23 16:09:30;;;;;;;7.60;4.47;;;;;;;11.91;49.36;100797.84;7682244;32;40144;-84
2023/01/23 16:13:46;;;;;;;12.05;5.70;;;;;;;11.79;49.42;100800.66;7685175;32;37114;-82
2023/01/23 16:18:04;;;;;;;10.73;5.70;;;;;;;11.71;49.73;100798.38;7684822;32;37175;-83
2023/01/23 16:22:27;;;;;;;8.80;4.95;;;;;;;11.80;49.43;100807.78;7680573;32;40102;-83
2023/01/23 16:26:47;;;;;;;10.45;5.43;;;;;;;11.59;50.57;100818.47;7705495;32;40261;-84
2023/01/23 16:31:03;;;;;;;12.30;5.60;;;;;;;11.62;50.40;100817.97;7674080;32;40257;-82
2023/01/23 16:35:24;;;;;;;9.68;5.90;;;;;;;11.73;49.83;100809.87;7701861;32;36836;-83
2023/01/23 16:39:44;;;;;;;13.27;6.68;;;;;;;11.58;50.04;100821.44;7706933;32;39280;-83
2023/01/23 16:44:03;;;;;;;10.80;6.33;;;;;;;11.42;50.68;100820.44;7684298;32;38899;-81
2023/01/23 16:48:20;;;;;;;12.15;6.57;;;;;;;11.43;50.52;100827.50;7680952;32;37904;-83
2023/01/23 16:52:49;;;;;;;12.07;6.28;;;;;;;11.44;50.65;100831.91;7683560;32;37224;-83
2023/01/23 16:57:08;;;;;;;11.82;6.78;;;;;;;11.27;50.95;100832.75;7682458;32;39030;-82
2023/01/23 17:01:25;;;;;;;11.38;6.28;;;;;;;11.08;51.60;100845.03;7692037;32;39347;-81
2023/01/23 17:05:41;;;;;;;10.27;6.05;;;;;;;11.15;51.53;100845.69;7691974;32;37738;-83
2023/01/23 17:09:58;;;;;;;12.27;6.32;;;;;;;10.93;52.19;100844.78;7696922;32;37134;-84
2023/01/23 17:14:25;;;;;;;11.85;6.25;;;;;;;11.12;51.56;100850.81;7687686;32;39423;-85
2023/01/23 17:18:41;;;;;;;11.70;6.30;;;;;;;10.95;52.27;100850.81;7689426;32;40698;-85
2023/01/23 17:22:58;;;;;;;11.52;5.62;;;;;;;10.86;52.23;100848.50;7664121;32;38737;-86
2023/01/23 17:27:16;;;;;;;12.20;6.18;;;;;;;10.82;52.37;100861.00;7683982;32;36111;-85
2023/01/23 17:31:33;;;;;;;10.77;6.05;;;;;;;10.80;52.30;100862.31;7683459;32;39479;-85
2023/01/23 17:35:50;;;;;;;11.80;6.03;;;;;;;10.73;52.41;100869.81;7663692;32;40858;-84
2023/01/23 17:40:11;;;;;;;13.10;6.15;;;;;;;10.75;52.09;100868.50;7683402;32;37937;-85
2023/01/23 17:44:27;;;;;;;9.82;5.78;;;;;;;10.52;52.96;100875.75;7671284;32;36812;-85
2023/01/23 17:48:44;;;;;;;11.35;5.18;;;;;;;10.57;52.62;100875.00;7695354;32;39300;-85
2023/01/23 17:53:00;;;;;;;11.77;5.85;;;;;;;10.53;52.60;100874.66;7709225;32;40480;-81
2023/01/23 17:57:17;;;;;;;11.23;6.47;;;;;;;10.73;52.09;100878.00;7693325;32;38756;-81
2023/01/23 18:01:33;;;;;;;10.30;5.43;;;;;;;10.45;52.94;100885.16;7702593;32;37093;-86
2023/01/23 18:05:49;;;;;;;10.18;5.57;;;;;;;10.37;53.14;100888.28;7690217;32;39089;-86
2023/01/23 18:10:09;;;;;;;11.88;5.70;;;;;;;10.28;53.32;100893.25;7687716;32;39909;-81
2023/01/23 18:14:51;;;;;;;11.18;5.95;;;;;;;10.42;53.03;100881.03;7683889;32;38195;-81
2023/01/23 18:19:23;;;;;;;11.18;5.70;;;;;;;10.23;53.30;100893.16;7696791;32;37066;-79
2023/01/23 18:23:40;;;;;;;9.50;5.75;;;;;;;10.48;52.62;100887.38;7685745;32;39594;-84
2023/01/23 18:28:00;;;;;;;10.48;5.43;;;;;;;10.28;53.12;100896.00;7687237;32;41154;-81
2023/01/23 18:32:48;;;;;;;12.00;5.85;;;;;;;10.16;53.91;100890.56;7674296;32;38886;-82
2023/01/23 18:37:20;;;;;;;14.13;6.37;;;;;;;10.19;53.47;100891.97;7670177;32;37853;-84
2023/01/23 18:41:42;;;;;;;11.97;6.23;;;;;;;10.31;52.80;100895.47;7680652;32;40190;-82
2023/01/23 18:45:58;;;;;;;16.12;6.72;;;;;;;10.40;52.17;100891.34;7682934;32;39948;-84
2023/01/23 18:50:16;;;;;;;13.10;5.62;;;;;;;10.40;52.35;100887.78;7681344;32;38120;-83
2023/01/23 18:55:00;;;;;;;11.45;5.85;;;;;;;10.42;52.31;100893.84;7680622;32;37898;-83
2023/01/23 18:59:37;;;;;;;10.23;6.12;;;;;;;10.01;53.48;100912.88;7664500;32;39345;-85
2023/01/23 19:03:53;;;;;;;11.00;5.35;;;;;;;9.98;53.60;100916.09;7680484;32;40024;-85
2023/01/23 19:08:31;;;;;;;11.70;5.97;;;;;;;9.81;54.31;100913.25;7683731;32;37773;-84
2023/01/23 19:12:59;;;;;;;10.27;5.43;;;;;;;9.84;54.07;100923.69;7684337;32;37036;-85
2023/01/23 19:17:35;;;;;;;8.05;4.95;;;;;;;9.91;53.73;100918.13;7684701;32;39218;-84
2023/01/23 19:21:52;;;;;;;9.75;5.45;;;;;;;9.81;53.79;100912.44;7685204;32;40083;-85
2023/01/23 19:26:17;;;;;;;8.70;4.72;;;;;;;9.93;53.44;100921.41;7685855;32;38144;-86
2023/01/23 19:30:35;;;;;;;9.95;4.93;;;;;;;9.77;53.94;100912.91;7684476;32;36843;-84
2023/01/23 19:34:52;;;;;;;16.25;9.13;;;;;;;9.85;53.51;100906.28;7684830;32;40012;-84
2023/01/23 19:39:11;;;;;;;14.23;7.75;;;;;;;9.56;54.04;100916.25;7684902;32;40756;-85
2023/01/23 19:43:27;;;;;;;11.45;6.30;;;;;;;9.83;53.26;100911.16;7683577;32;37917;-85
2023/01/23 19:47:44;;;;;;;12.07;6.32;;;;;;;9.74;53.70;100918.87;7683049;32;36788;-83
2023/01/23 19:52:01;;;;;;;12.75;6.95;;;;;;;9.70;54.09;100933.19;7681479;32;40089;-83
2023/01/23 19:56:17;;;;;;;11.45;5.93;;;;;;;9.43;55.23;100938.28;7683114;32;40044;-85
2023/01/23 20:00:37;;;;;;;12.15;5.30;;;;;;;9.45;55.12;100941.59;7681873;32;37710;-81
2023/01/23 20:04:56;;;;;;;10.30;5.32;;;;;;;9.47;54.83;100934.00;7683491;32;36199;-82
2023/01/23 20:09:16;;;;;;;8.13;4.72;;;;;;;9.50;54.57;100937.09;7682892;32;40121;-83
2023/01/23 20:13:32;;;;;;;9.52;5.30;;;;;;;9.55;54.26;100939.09;7683117;32;40785;-83
2023/01/23 20:17:49;;;;;;;10.18;5.30;;;;;;;9.53;54.08;100942.06;7683046;32;37862;-84
2023/01/23 20:22:05;;;;;;;8.93;5.35;;;;;;;9.52;53.92;100942.28;7682992;32;37985;-83
2023/01/23 20:26:21;;;;;;;9.18;5.03;;;;;;;9.31;54.31;100947.28;7673549;32;40111;-82
2023/01/23 20:30:38;;;;;;;10.05;5.30;;;;;;;9.54;53.77;100951.87;7670568;32;39714;-82
2023/01/23 20:34:55;;;;;;;10.60;5.25;;;;;;;9.63;53.65;100952.37;7682404;32;37997;-83
2023/01/23 20:39:12;;;;;;;11.30;4.70;;;;;;;9.44;54.37;100961.72;7682160;32;37211;-83
2023/01/23 20:43:28;;;;;;;9.00;4.80;;;;;;;9.24;54.69;100973.75;7682675;32;40096;-82
2023/01/23 20:47:44;;;;;;;8.68;4.80;;;;;;;8.99;55.10;100972.03;7682684;32;39631;-83